Time;durP1;ratioP1;P1;durP2;ratioP2;P2;SDS_P1;SDS_P2;PMS_P1;PMS_P2;Temp;Humidity;BMP_temperature;BMP_pressure;BME280_temperature;BME280_humidity;BME280_pressure;Samples;Min_cycle;Max_cycle;Signal;HPM_P1;HPM_P2
2022/08/19 00:00:36;;;;;;;0.60;0.20;;;22.70;69.40;;;;;;5012384;28;20042;-87
2022/08/19 00:03:03;;;;;;;0.85;0.30;;;22.70;69.50;;;;;;5007516;28;20018;-85
2022/08/19 00:05:31;;;;;;;1.10;0.30;;;22.60;69.40;;;;;;4992609;28;20026;-86
2022/08/19 00:07:57;;;;;;;1.48;0.40;;;22.60;69.50;;;;;;5008113;28;20034;-85
2022/08/19 00:10:24;;;;;;;1.13;0.30;;;22.70;69.80;;;;;;5009750;28;20425;-85
2022/08/19 00:12:50;;;;;;;1.17;0.60;;;22.60;69.70;;;;;;4975421;28;20021;-85
2022/08/19 00:15:20;;;;;;;1.80;0.50;;;22.60;69.70;;;;;;5025056;28;20026;-85
2022/08/19 00:17:46;;;;;;;0.75;0.50;;;22.60;69.80;;;;;;5010280;28;20791;-86
2022/08/19 00:20:17;;;;;;;1.40;0.60;;;22.60;69.80;;;;;;5010676;28;20116;-85
2022/08/19 00:22:44;;;;;;;1.10;0.40;;;22.60;70.40;;;;;;4994707;28;20371;-85
2022/08/19 00:25:11;;;;;;;1.20;0.60;;;22.60;69.90;;;;;;5010550;28;20108;-86
2022/08/19 00:27:38;;;;;;;1.90;0.70;;;22.50;69.80;;;;;;5012591;28;20060;-88
2022/08/19 00:30:05;;;;;;;1.42;0.43;;;22.50;69.90;;;;;;4994680;28;20044;-86
2022/08/19 00:32:32;;;;;;;1.45;0.60;;;22.50;69.90;;;;;;5008752;28;20109;-87
2022/08/19 00:34:58;;;;;;;1.05;0.55;;;22.50;70.00;;;;;;5012967;28;20014;-88
2022/08/19 00:37:26;;;;;;;1.55;0.50;;;22.50;70.00;;;;;;5014024;28;20038;-89
2022/08/19 00:39:53;;;;;;;1.75;0.43;;;22.50;70.10;;;;;;5027258;28;20181;-92
2022/08/19 00:42:20;;;;;;;1.17;0.60;;;22.50;70.10;;;;;;5005979;28;20050;-89
2022/08/19 00:44:47;;;;;;;2.38;0.70;;;22.50;70.20;;;;;;5007509;28;20178;-89
2022/08/19 00:47:13;;;;;;;2.03;0.63;;;22.50;70.20;;;;;;4987521;28;20026;-88
2022/08/19 00:49:50;;;;;;;1.60;0.70;;;22.40;70.10;;;;;;4989612;28;20381;-87
2022/08/19 00:52:23;;;;;;;1.50;0.40;;;22.40;70.20;;;;;;5003461;28;20022;-86
2022/08/19 00:54:51;;;;;;;1.60;0.63;;;22.40;70.20;;;;;;5004210;28;20034;-85
2022/08/19 00:57:22;;;;;;;2.00;0.85;;;22.40;70.20;;;;;;5009852;28;20737;-88
2022/08/19 00:59:54;;;;;;;2.38;0.93;;;22.40;70.30;;;;;;5012755;28;20067;-88
2022/08/19 01:02:20;;;;;;;1.95;0.63;;;22.40;70.40;;;;;;5030683;28;20028;-87
2022/08/19 01:04:46;;;;;;;1.50;0.68;;;22.30;70.20;;;;;;4992914;28;20044;-87
2022/08/19 01:07:12;;;;;;;3.50;0.70;;;22.30;70.30;;;;;;5003283;28;20029;-87
2022/08/19 01:09:38;;;;;;;2.95;0.60;;;22.30;70.30;;;;;;5010423;28;20042;-90
2022/08/19 01:12:05;;;;;;;1.38;0.43;;;22.30;70.40;;;;;;5017425;28;20087;-89
2022/08/19 01:14:32;;;;;;;1.33;0.40;;;22.30;70.50;;;;;;4998696;28;20026;-89
2022/08/19 01:16:59;;;;;;;1.80;0.63;;;22.30;70.50;;;;;;5015740;28;20539;-88
2022/08/19 01:19:34;;;;;;;1.85;0.55;;;22.30;70.60;;;;;;5016052;28;20040;-87
2022/08/19 01:22:08;;;;;;;1.38;0.35;;;22.30;70.60;;;;;;5010363;28;20457;-88
2022/08/19 01:24:34;;;;;;;1.92;0.40;;;22.20;70.50;;;;;;5014788;28;20026;-86
2022/08/19 01:27:04;;;;;;;2.17;0.60;;;22.20;70.50;;;;;;5013916;28;20040;-87
2022/08/19 01:29:30;;;;;;;1.13;0.60;;;22.20;70.50;;;;;;5014757;28;20033;-89
2022/08/19 01:31:57;;;;;;;1.58;0.50;;;22.20;70.60;;;;;;5031431;28;20076;-89
2022/08/19 01:34:24;;;;;;;1.73;0.70;;;22.10;70.40;;;;;;5019787;28;20079;-90
2022/08/19 01:36:50;;;;;;;2.45;0.55;;;22.10;70.40;;;;;;5022153;28;20029;-92
2022/08/19 01:39:22;;;;;;;2.55;0.80;;;22.10;70.50;;;;;;5004994;28;20038;-90
2022/08/19 01:41:49;;;;;;;1.05;0.75;;;22.10;70.60;;;;;;4996926;28;20033;-87
2022/08/19 01:44:20;;;;;;;2.45;0.75;;;22.10;70.50;;;;;;4997746;28;20042;-90
2022/08/19 01:46:48;;;;;;;1.25;0.38;;;22.10;70.60;;;;;;4983044;28;20033;-86
2022/08/19 01:49:15;;;;;;;1.40;0.50;;;22.10;70.60;;;;;;5013692;28;20045;-88
2022/08/19 01:51:41;;;;;;;1.63;0.85;;;22.10;70.60;;;;;;5008864;28;20030;-85
2022/08/19 01:54:09;;;;;;;1.45;0.43;;;22.10;70.70;;;;;;5011784;28;20033;-90
2022/08/19 01:56:35;;;;;;;1.65;0.60;;;22.00;70.50;;;;;;5023237;28;20040;-88
2022/08/19 01:59:08;;;;;;;2.40;0.50;;;22.00;70.50;;;;;;5007092;28;20514;-89
2022/08/19 02:01:34;;;;;;;1.73;0.80;;;22.00;70.60;;;;;;5015174;28;20048;-90
2022/08/19 02:04:03;;;;;;;2.72;0.82;;;22.00;70.60;;;;;;5015529;28;20528;-88
2022/08/19 02:06:30;;;;;;;2.92;0.80;;;21.90;70.40;;;;;;4976401;28;20037;-88
2022/08/19 02:08:56;;;;;;;1.00;0.60;;;21.90;71.00;;;;;;5027623;28;20032;-90
2022/08/19 02:11:28;;;;;;;1.80;0.77;;;21.90;71.10;;;;;;5027689;28;20490;-90
2022/08/19 02:13:55;;;;;;;2.67;0.52;;;21.90;70.60;;;;;;5012666;28;20041;-87
2022/08/19 02:16:21;;;;;;;1.63;0.70;;;21.80;70.40;;;;;;5027701;28;20025;-91
2022/08/19 02:18:48;;;;;;;1.55;0.40;;;21.80;70.40;;;;;;5033690;28;20033;-88
2022/08/19 02:21:19;;;;;;;2.60;1.13;;;21.80;70.50;;;;;;5001802;28;20033;-90
2022/08/19 02:23:45;;;;;;;2.05;0.75;;;21.80;70.50;;;;;;5013739;28;20024;-90
2022/08/19 02:26:12;;;;;;;2.08;0.85;;;21.80;70.50;;;;;;5001917;28;20026;-91
2022/08/19 02:28:38;;;;;;;2.72;0.73;;;21.80;70.50;;;;;;5042035;28;20029;-88
2022/08/19 02:31:10;;;;;;;2.00;0.65;;;21.80;70.50;;;;;;5022796;28;20097;-90
2022/08/19 02:33:36;;;;;;;2.28;0.68;;;21.70;70.50;;;;;;5028812;28;20037;-91
2022/08/19 02:36:05;;;;;;;1.38;0.45;;;21.70;70.40;;;;;;5031516;28;20437;-90
2022/08/19 02:38:31;;;;;;;1.27;0.65;;;21.70;70.50;;;;;;5029849;28;20056;-89
2022/08/19 02:41:01;;;;;;;1.20;0.60;;;21.70;70.50;;;;;;5029578;28;20512;-89
2022/08/19 02:43:28;;;;;;;1.35;0.60;;;21.70;70.50;;;;;;5034542;28;20566;-90
2022/08/19 02:45:55;;;;;;;2.28;0.60;;;21.70;70.60;;;;;;5014718;28;20029;-91
2022/08/19 02:48:23;;;;;;;3.50;1.02;;;21.70;70.60;;;;;;5045062;28;20110;-91
2022/08/19 02:50:54;;;;;;;3.70;0.90;;;21.70;70.60;;;;;;5019616;28;20064;-91
2022/08/19 02:53:23;;;;;;;1.67;0.80;;;21.70;70.60;;;;;;5033185;28;20139;-92
2022/08/19 02:55:53;;;;;;;2.30;0.85;;;21.60;70.40;;;;;;5039932;28;20376;-89
2022/08/19 02:58:20;;;;;;;3.85;1.15;;;21.60;70.40;;;;;;5017814;28;20042;-85
2022/08/19 03:00:52;;;;;;;2.17;0.77;;;21.60;70.40;;;;;;5053694;28;20021;-88
2022/08/19 03:03:19;;;;;;;6.50;1.45;;;21.60;70.40;;;;;;5047963;28;20048;-90
2022/08/19 03:05:46;;;;;;;3.28;0.88;;;21.50;70.30;;;;;;5022715;28;20178;-90
2022/08/19 03:08:12;;;;;;;3.17;1.27;;;21.50;70.30;;;;;;5014808;28;20029;-91
2022/08/19 03:10:44;;;;;;;4.32;1.63;;;21.50;70.30;;;;;;5004656;28;20205;-91
2022/08/19 03:13:12;;;;;;;4.22;1.17;;;21.40;70.20;;;;;;5025908;28;20028;-89
2022/08/19 03:15:46;;;;;;;3.90;0.80;;;21.40;70.80;;;;;;5026743;28;20036;-88
2022/08/19 03:18:13;;;;;;;3.65;0.73;;;21.40;70.40;;;;;;5027455;28;20585;-89
2022/08/19 03:20:45;;;;;;;2.00;0.93;;;21.30;70.20;;;;;;5010037;28;20052;-89
2022/08/19 03:23:15;;;;;;;3.50;1.33;;;21.30;70.20;;;;;;5026202;28;20040;-89
2022/08/19 03:25:44;;;;;;;2.60;1.25;;;21.20;70.10;;;;;;5026788;28;20022;-89
2022/08/19 03:28:12;;;;;;;3.83;1.65;;;21.30;70.30;;;;;;5003864;28;20111;-87
2022/08/19 03:30:40;;;;;;;3.83;1.23;;;21.20;70.10;;;;;;5003078;28;20025;-89
2022/08/19 03:33:07;;;;;;;1.52;0.73;;;21.20;70.10;;;;;;4992996;28;20033;-90
2022/08/19 03:35:36;;;;;;;4.75;1.10;;;21.20;70.20;;;;;;5016670;28;20022;-87
2022/08/19 03:38:06;;;;;;;1.60;0.85;;;21.10;70.00;;;;;;4995052;28;20511;-89
2022/08/19 03:40:34;;;;;;;2.47;1.08;;;21.10;70.00;;;;;;5018387;28;20037;-87
2022/08/19 03:43:01;;;;;;;3.65;1.08;;;21.10;70.00;;;;;;4999588;28;20044;-87
2022/08/19 03:45:27;;;;;;;3.67;1.75;;;21.10;70.00;;;;;;5019761;28;20091;-87
2022/08/19 03:47:53;;;;;;;4.40;1.30;;;21.10;70.10;;;;;;4998819;28;20335;-87
2022/08/19 03:50:19;;;;;;;3.50;1.10;;;21.10;70.10;;;;;;5014262;28;20374;-88
2022/08/19 03:52:50;;;;;;;5.18;1.40;;;21.10;70.10;;;;;;4996676;28;20041;-87
2022/08/19 03:55:17;;;;;;;3.40;1.13;;;21.00;69.90;;;;;;4991403;28;20686;-87
2022/08/19 03:57:44;;;;;;;5.03;1.73;;;21.00;69.90;;;;;;5008397;28;20044;-86
2022/08/19 04:00:11;;;;;;;5.03;1.35;;;21.00;69.90;;;;;;5033863;28;20091;-87
2022/08/19 04:02:37;;;;;;;3.08;1.15;;;21.00;69.90;;;;;;5018445;28;20045;-91
2022/08/19 04:05:04;;;;;;;4.97;2.10;;;21.00;69.90;;;;;;5036534;28;20034;-88
2022/08/19 04:07:30;;;;;;;2.97;1.52;;;21.00;69.90;;;;;;5032282;28;20022;-89
2022/08/19 04:09:59;;;;;;;3.08;1.13;;;21.00;69.90;;;;;;5031680;28;20040;-87
2022/08/19 04:12:24;;;;;;;3.95;1.40;;;21.00;70.00;;;;;;4984935;28;20032;-86
2022/08/19 04:14:51;;;;;;;4.35;1.65;;;20.90;69.80;;;;;;5018835;28;20026;-87
2022/08/19 04:17:17;;;;;;;5.15;1.85;;;20.90;69.80;;;;;;5002317;28;20033;-87
2022/08/19 04:19:42;;;;;;;5.22;2.58;;;20.90;70.40;;;;;;5032465;28;20047;-91
2022/08/19 04:22:09;;;;;;;5.05;2.08;;;20.90;69.90;;;;;;5013995;28;20464;-91
2022/08/19 04:24:35;;;;;;;4.18;1.92;;;20.80;69.70;;;;;;4978952;28;20052;-90
2022/08/19 04:27:03;;;;;;;4.57;2.28;;;20.80;69.80;;;;;;5004485;28;20029;-90
2022/08/19 04:29:30;;;;;;;4.20;1.42;;;20.70;69.70;;;;;;5040295;28;20043;-93
2022/08/19 04:31:57;;;;;;;6.70;3.00;;;20.70;69.70;;;;;;5030689;28;20369;-91
2022/08/19 04:34:25;;;;;;;7.40;2.10;;;20.70;69.80;;;;;;4998316;28;20038;-92
2022/08/19 04:36:53;;;;;;;7.22;2.33;;;20.60;69.70;;;;;;5018223;28;20055;-93
2022/08/19 04:45:00;;;;;;;7.22;1.80;;;20.50;69.70;;;;;;5031509;28;20048;-88
2022/08/19 04:47:26;;;;;;;5.38;2.03;;;20.40;69.50;;;;;;4999114;28;20079;-89
2022/08/19 04:49:53;;;;;;;5.57;1.98;;;20.40;69.60;;;;;;5040263;28;20021;-90
2022/08/19 04:52:20;;;;;;;3.95;1.80;;;20.30;69.50;;;;;;5009158;28;20132;-92
2022/08/19 04:54:46;;;;;;;6.47;2.00;;;20.30;69.60;;;;;;5026534;28;20448;-92
2022/08/19 04:57:12;;;;;;;5.43;2.03;;;20.30;69.60;;;;;;4999728;28;20204;-92
2022/08/19 04:59:39;;;;;;;8.68;2.45;;;20.20;69.50;;;;;;5050099;28;20240;-92
2022/08/19 05:02:08;;;;;;;7.45;2.17;;;20.20;69.60;;;;;;5049209;28;20017;-91
2022/08/19 05:04:37;;;;;;;6.63;2.55;;;20.10;69.40;;;;;;5031715;28;20041;-91
2022/08/19 05:07:07;;;;;;;6.43;2.75;;;20.10;69.50;;;;;;5051060;28;20034;-89
2022/08/19 05:09:34;;;;;;;5.50;2.00;;;20.10;69.50;;;;;;4999909;28;20071;-91
2022/08/19 05:12:00;;;;;;;8.85;2.83;;;20.00;69.40;;;;;;5032012;28;20075;-89
2022/08/19 05:14:26;;;;;;;6.88;2.45;;;19.90;69.30;;;;;;5013699;28;20031;-89
2022/08/19 05:16:52;;;;;;;3.88;2.08;;;19.90;69.30;;;;;;5008320;28;20033;-87
2022/08/19 05:24:47;;;;;;;6.57;2.13;;;19.80;69.30;;;;;;5025086;28;20039;-91
2022/08/19 05:27:13;;;;;;;4.38;2.15;;;19.80;69.30;;;;;;4990221;28;20041;-83
2022/08/19 05:29:39;;;;;;;6.10;2.03;;;19.70;69.20;;;;;;5010285;28;20025;-83
2022/08/19 05:32:10;;;;;;;5.20;1.73;;;19.70;69.30;;;;;;4995138;28;20048;-85
2022/08/19 05:34:37;;;;;;;4.45;2.15;;;19.60;69.10;;;;;;5012013;28;20041;-86
2022/08/19 05:37:04;;;;;;;5.25;2.22;;;19.60;69.20;;;;;;5015868;28;20017;-86
2022/08/19 05:39:33;;;;;;;6.72;2.40;;;19.60;69.20;;;;;;5009609;28;20509;-83
2022/08/19 05:42:02;;;;;;;5.28;2.80;;;19.50;69.10;;;;;;5005667;28;20037;-88
2022/08/19 05:44:31;;;;;;;4.82;2.50;;;19.50;69.10;;;;;;5024831;28;20516;-89
2022/08/19 05:46:59;;;;;;;3.72;2.15;;;19.50;69.10;;;;;;5011825;28;20028;-86
2022/08/19 05:49:26;;;;;;;6.75;2.58;;;19.50;69.10;;;;;;5007394;28;20041;-89
2022/08/19 05:51:54;;;;;;;5.88;2.40;;;19.50;69.10;;;;;;5011061;28;20029;-85
2022/08/19 05:54:22;;;;;;;10.07;4.00;;;19.50;69.10;;;;;;5008148;28;20041;-87
2022/08/19 05:56:50;;;;;;;4.70;2.05;;;19.50;69.10;;;;;;5008644;28;20037;-94
2022/08/19 05:59:17;;;;;;;5.20;2.72;;;19.50;69.00;;;;;;5008158;28;20545;-89
2022/08/19 06:01:46;;;;;;;4.20;2.13;;;19.50;69.00;;;;;;5028211;28;20423;-89
2022/08/19 06:04:13;;;;;;;10.05;4.10;;;19.50;69.50;;;;;;5024264;28;20059;-85
2022/08/19 06:06:40;;;;;;;6.05;2.22;;;19.60;69.10;;;;;;5011520;28;20150;-88
2022/08/19 06:09:07;;;;;;;5.70;2.85;;;19.60;69.00;;;;;;5018770;28;20031;-87
2022/08/19 06:11:38;;;;;;;11.57;4.05;;;19.70;69.20;;;;;;5001361;28;20495;-87
2022/08/19 06:14:09;;;;;;;8.32;3.78;;;19.70;69.30;;;;;;5011101;28;20030;-87
2022/08/19 06:16:38;;;;;;;6.07;3.22;;;19.90;69.70;;;;;;5013149;28;20029;-88
2022/08/19 06:19:07;;;;;;;5.80;1.90;;;20.10;69.80;;;;;;5025488;28;20045;-86
2022/08/19 06:21:36;;;;;;;4.47;2.08;;;20.30;69.80;;;;;;4990875;28;20463;-85
2022/08/19 06:24:04;;;;;;;8.80;3.08;;;20.50;69.60;;;;;;5025057;28;20037;-87
2022/08/19 06:26:31;;;;;;;6.97;2.60;;;20.80;69.60;;;;;;5021691;28;20025;-87
2022/08/19 06:28:57;;;;;;;7.93;2.88;;;21.00;69.30;;;;;;5009458;28;20026;-85
2022/08/19 06:31:31;;;;;;;8.68;2.92;;;21.30;69.20;;;;;;4987038;28;20036;-84
2022/08/19 06:33:57;;;;;;;4.70;1.55;;;21.50;68.80;;;;;;4989224;28;20043;-89
2022/08/19 06:36:40;;;;;;;6.18;2.08;;;21.80;68.50;;;;;;5026024;28;20391;-89
2022/08/19 06:39:13;;;;;;;7.57;2.38;;;22.10;68.20;;;;;;5010215;28;20037;-86
2022/08/19 06:41:41;;;;;;;8.43;2.40;;;22.40;67.80;;;;;;4994329;28;20044;-90
2022/08/19 06:44:17;;;;;;;9.07;3.22;;;22.70;67.40;;;;;;5005404;28;20045;-87
2022/08/19 06:46:43;;;;;;;4.75;1.92;;;22.70;66.90;;;;;;5024113;28;20388;-87
2022/08/19 06:49:13;;;;;;;7.75;2.50;;;22.80;66.90;;;;;;5005461;28;20431;-88
2022/08/19 06:51:44;;;;;;;4.55;1.95;;;23.10;66.80;;;;;;4991263;28;20033;-89
2022/08/19 06:54:10;;;;;;;4.90;2.00;;;23.50;66.50;;;;;;4990565;28;20034;-86
2022/08/19 06:56:37;;;;;;;5.57;2.45;;;23.90;66.10;;;;;;5012896;28;20041;-88
2022/08/19 06:59:14;;;;;;;3.50;1.30;;;24.30;65.80;;;;;;4990589;28;20459;-87
2022/08/19 07:01:45;;;;;;;4.03;1.50;;;24.60;65.80;;;;;;5028634;28;20041;-85
2022/08/19 07:04:12;;;;;;;5.30;1.85;;;24.90;65.00;;;;;;5037995;28;20203;-85
2022/08/19 07:06:37;;;;;;;2.92;1.35;;;25.20;64.50;;;;;;5043846;28;20045;-86
2022/08/19 07:09:09;;;;;;;6.65;1.88;;;25.50;63.90;;;;;;5036487;28;20038;-85
2022/08/19 07:11:35;;;;;;;3.92;1.48;;;25.80;63.10;;;;;;5036940;28;20038;-86
2022/08/19 07:14:02;;;;;;;5.57;1.52;;;26.10;62.60;;;;;;5034503;28;20035;-84
2022/08/19 07:16:28;;;;;;;9.05;3.17;;;26.40;61.80;;;;;;5046752;28;20052;-87
2022/08/19 07:18:56;;;;;;;5.32;2.00;;;26.70;61.00;;;;;;5017079;28;20124;-86
2022/08/19 07:21:27;;;;;;;6.32;1.80;;;27.00;60.30;;;;;;5029432;28;20072;-88
2022/08/19 07:23:55;;;;;;;5.82;2.28;;;27.30;59.50;;;;;;4996264;28;20034;-85
2022/08/19 07:26:25;;;;;;;3.45;1.42;;;27.60;58.90;;;;;;5031930;28;20347;-85
2022/08/19 07:28:51;;;;;;;4.95;1.73;;;27.80;58.10;;;;;;5009949;28;20034;-82
2022/08/19 07:31:20;;;;;;;3.53;1.60;;;28.10;57.80;;;;;;5031984;28;20064;-88
2022/08/19 07:33:48;;;;;;;4.65;1.27;;;28.20;57.30;;;;;;5030129;28;20030;-85
2022/08/19 07:36:19;;;;;;;4.50;1.38;;;28.20;57.10;;;;;;5029348;28;20535;-86
2022/08/19 07:38:48;;;;;;;6.38;2.65;;;28.20;56.80;;;;;;5029051;28;20374;-86
2022/08/19 07:41:18;;;;;;;3.17;1.20;;;28.10;56.80;;;;;;4996526;28;20025;-86
2022/08/19 07:43:45;;;;;;;2.70;1.20;;;28.10;56.80;;;;;;5009801;28;20075;-85
2022/08/19 07:46:13;;;;;;;3.58;1.42;;;28.10;56.80;;;;;;5027743;28;20025;-85
2022/08/19 07:48:40;;;;;;;4.07;1.73;;;28.00;56.70;;;;;;4992120;28;20030;-88
2022/08/19 07:51:08;;;;;;;6.82;2.00;;;28.00;56.60;;;;;;4977501;28;20071;-85
2022/08/19 07:53:35;;;;;;;4.13;1.60;;;28.00;56.50;;;;;;4989467;28;20034;-85
2022/08/19 07:56:03;;;;;;;4.43;1.77;;;27.90;56.40;;;;;;4976626;28;20041;-86
2022/08/19 07:58:35;;;;;;;4.40;1.63;;;27.80;56.20;;;;;;4998683;28;20412;-82
2022/08/19 08:01:04;;;;;;;5.07;1.40;;;27.80;56.00;;;;;;5024748;28;20030;-85
2022/08/19 08:11:49;;;;;;;5.00;1.40;;;28.00;55.20;;;;;;5026492;28;20155;-88
2022/08/19 08:14:25;;;;;;;4.57;1.10;;;28.00;54.80;;;;;;5010715;28;20248;-84
2022/08/19 08:16:52;;;;;;;2.70;1.50;;;28.00;54.60;;;;;;5025243;28;20380;-87
2022/08/19 08:19:20;;;;;;;3.92;1.65;;;28.00;54.70;;;;;;5020059;28;20051;-88
2022/08/19 08:21:48;;;;;;;3.70;1.70;;;27.80;54.70;;;;;;4998741;28;20029;-91
2022/08/19 08:24:14;;;;;;;5.10;1.10;;;27.60;54.90;;;;;;5027002;28;20038;-91
2022/08/19 08:26:40;;;;;;;5.40;1.70;;;27.30;55.20;;;;;;5000208;28;20410;-88
2022/08/19 08:29:11;;;;;;;3.60;1.20;;;27.20;55.60;;;;;;5003481;28;20037;-89
2022/08/19 08:31:37;;;;;;;4.82;1.75;;;26.90;55.70;;;;;;5014415;28;20520;-90
2022/08/19 08:34:03;;;;;;;5.63;1.77;;;26.80;56.10;;;;;;5016960;28;20049;-91
2022/08/19 08:36:33;;;;;;;7.57;2.53;;;26.60;56.40;;;;;;4994004;28;20120;-93
2022/08/19 08:39:00;;;;;;;6.28;2.00;;;26.40;56.40;;;;;;5016298;28;20055;-92
2022/08/19 08:42:00;;;;;;;7.45;1.80;;;26.20;56.50;;;;;;5017460;28;20033;-94
2022/08/19 08:44:37;;;;;;;4.07;1.48;;;26.10;56.40;;;;;;5027291;28;20083;-88
2022/08/19 08:47:10;;;;;;;2.72;1.40;;;26.00;56.80;;;;;;4994734;28;20041;-89
2022/08/19 08:49:48;;;;;;;;;;;25.90;57.00;;;;;;5015817;28;20069;-93
2022/08/19 08:52:27;;;;;;;6.05;1.90;;;25.80;57.20;;;;;;5027508;28;20267;-84
2022/08/19 08:54:59;;;;;;;7.70;2.28;;;25.70;57.20;;;;;;5026349;28;20037;-85
2022/08/19 08:58:13;;;;;;;4.95;1.33;;;25.70;57.30;;;;;;4978595;28;20037;-83
2022/08/19 09:00:45;;;;;;;6.60;2.20;;;25.60;57.10;;;;;;5009744;28;20025;-85
2022/08/19 09:03:29;;;;;;;4.70;1.92;;;25.60;57.20;;;;;;5016690;28;20056;-83
2022/08/19 09:06:21;;;;;;;3.33;1.65;;;25.60;56.90;;;;;;5005818;28;20440;-86
2022/08/19 09:09:12;;;;;;;4.75;1.58;;;25.60;57.00;;;;;;5014000;28;20070;-85
2022/08/19 09:11:52;;;;;;;5.70;1.30;;;25.60;57.00;;;;;;4972643;28;20497;-86
2022/08/19 09:14:34;;;;;;;4.47;1.80;;;25.60;57.00;;;;;;5022638;28;20079;-86
2022/08/19 09:17:03;;;;;;;3.63;1.67;;;25.60;56.80;;;;;;5009505;28;20081;-84
2022/08/19 09:19:29;;;;;;;6.43;1.98;;;25.60;56.80;;;;;;4995301;28;20045;-84
2022/08/19 09:21:56;;;;;;;5.13;1.73;;;25.70;56.60;;;;;;5006497;28;20037;-83
2022/08/19 09:24:22;;;;;;;5.88;1.73;;;25.70;56.60;;;;;;5001497;28;20040;-85
2022/08/19 09:26:48;;;;;;;4.78;1.27;;;25.80;56.40;;;;;;5027626;28;20410;-83
2022/08/19 09:29:14;;;;;;;4.82;1.80;;;25.80;56.20;;;;;;5015008;28;20036;-86
2022/08/19 09:31:40;;;;;;;3.90;1.65;;;25.90;56.10;;;;;;5012695;28;20040;-85
2022/08/19 09:34:06;;;;;;;6.20;2.05;;;25.90;55.90;;;;;;5025279;28;20063;-85
2022/08/19 09:36:33;;;;;;;4.18;1.65;;;26.00;55.80;;;;;;5013620;28;20025;-85
2022/08/19 09:39:02;;;;;;;4.63;1.25;;;26.20;55.70;;;;;;5025790;28;20041;-86
2022/08/19 09:41:28;;;;;;;4.47;1.85;;;26.40;55.50;;;;;;4991859;28;20482;-84
2022/08/19 09:43:56;;;;;;;4.80;2.20;;;26.60;55.20;;;;;;4993573;28;20035;-88
2022/08/19 09:46:25;;;;;;;4.80;1.85;;;26.80;54.80;;;;;;4991324;28;20091;-84
2022/08/19 09:48:51;;;;;;;5.53;1.83;;;27.00;54.40;;;;;;4990253;28;20029;-91
2022/08/19 09:51:23;;;;;;;4.05;1.52;;;27.20;54.20;;;;;;5026433;28;20028;-91
2022/08/19 09:53:53;;;;;;;4.88;1.40;;;27.30;53.80;;;;;;5028946;28;20047;-93
2022/08/19 09:56:21;;;;;;;4.90;2.05;;;27.40;53.70;;;;;;5037092;28;20025;-94
2022/08/19 09:58:48;;;;;;;5.50;1.95;;;27.50;53.60;;;;;;5030478;28;20065;-87
2022/08/19 10:01:23;;;;;;;4.82;1.63;;;27.50;53.50;;;;;;5010683;28;20036;-89
2022/08/19 10:03:53;;;;;;;4.88;1.65;;;27.30;53.40;;;;;;5015623;28;20045;-88
2022/08/19 10:06:25;;;;;;;5.30;1.70;;;27.30;53.60;;;;;;4994431;28;20415;-89
2022/08/19 10:08:52;;;;;;;5.68;1.90;;;27.10;53.50;;;;;;4981935;28;20033;-87
2022/08/19 10:11:20;;;;;;;6.45;2.13;;;27.00;53.60;;;;;;5017311;28;20026;-87
2022/08/19 10:13:46;;;;;;;5.53;2.10;;;26.90;53.70;;;;;;5035424;28;20033;-93
2022/08/19 10:16:17;;;;;;;3.90;1.60;;;26.80;53.80;;;;;;5013438;28;20038;-94
2022/08/19 10:18:45;;;;;;;3.97;1.88;;;26.90;53.80;;;;;;5016164;28;20076;-92
2022/08/19 10:21:14;;;;;;;5.90;1.75;;;27.00;53.70;;;;;;5035589;28;20099;-90
2022/08/19 10:23:47;;;;;;;4.63;1.40;;;27.10;53.50;;;;;;5027356;28;20025;-92
2022/08/19 10:26:17;;;;;;;6.55;1.90;;;27.30;53.40;;;;;;4990652;28;20041;-92
2022/08/19 10:28:43;;;;;;;6.38;2.20;;;27.50;53.10;;;;;;5020704;28;20514;-92
2022/08/19 10:31:17;;;;;;;5.68;1.55;;;27.60;52.90;;;;;;4984367;28;20364;-92
2022/08/19 10:33:43;;;;;;;4.93;1.52;;;27.70;52.60;;;;;;5011982;28;20064;-93
2022/08/19 10:36:17;;;;;;;3.92;1.55;;;27.80;52.40;;;;;;5012345;28;20018;-91
2022/08/19 10:38:45;;;;;;;3.45;1.60;;;27.80;52.20;;;;;;4994483;28;20041;-92
2022/08/19 10:41:14;;;;;;;6.32;1.70;;;27.80;52.10;;;;;;4991722;28;20079;-91
2022/08/19 10:43:41;;;;;;;5.13;2.00;;;27.90;52.10;;;;;;5026859;28;20485;-92
2022/08/19 10:46:10;;;;;;;5.88;1.67;;;27.80;52.00;;;;;;5012297;28;20095;-91
2022/08/19 10:48:36;;;;;;;5.72;1.40;;;27.80;51.90;;;;;;4994025;28;20086;-91
2022/08/19 10:53:47;;;;;;;8.82;2.55;;;27.80;51.80;;;;;;5027952;28;20089;-93
2022/08/19 10:58:59;;;;;;;4.30;1.63;;;27.80;51.30;;;;;;5019280;28;20083;-94
2022/08/19 11:01:26;;;;;;;7.45;2.42;;;27.70;51.10;;;;;;5016344;28;20026;-93
2022/08/19 11:03:52;;;;;;;5.90;1.95;;;27.70;51.00;;;;;;5022802;28;20028;-93
2022/08/19 11:06:19;;;;;;;7.50;1.70;;;27.70;51.00;;;;;;5038345;28;20112;-95
2022/08/19 11:08:45;;;;;;;7.72;1.80;;;27.80;50.90;;;;;;5032333;28;20040;-90
2022/08/19 11:11:12;;;;;;;7.72;2.47;;;27.80;50.70;;;;;;5020973;28;20025;-89
2022/08/19 11:13:40;;;;;;;4.25;1.60;;;27.90;50.70;;;;;;5031716;28;20034;-88
2022/08/19 11:16:10;;;;;;;5.15;1.83;;;28.00;50.60;;;;;;5033748;28;20226;-87
2022/08/19 11:18:45;;;;;;;3.55;1.23;;;28.10;50.50;;;;;;5002432;28;20064;-85
2022/08/19 11:21:23;;;;;;;6.00;1.67;;;28.20;50.30;;;;;;5012091;28;20124;-95
2022/08/19 11:23:51;;;;;;;7.03;2.22;;;28.30;50.00;;;;;;5020954;28;20025;-89
2022/08/19 11:26:21;;;;;;;4.32;1.35;;;28.40;49.90;;;;;;5002177;28;20093;-95
2022/08/19 11:28:48;;;;;;;5.93;1.88;;;28.50;49.70;;;;;;5037018;28;20319;-90
2022/08/19 11:31:17;;;;;;;3.85;1.63;;;28.70;49.60;;;;;;5018817;28;20026;-93
2022/08/19 11:33:43;;;;;;;6.32;1.92;;;29.00;49.50;;;;;;5032595;28;20551;-92
2022/08/19 11:36:10;;;;;;;5.63;1.60;;;29.30;49.10;;;;;;5038006;28;20528;-89
2022/08/19 11:38:36;;;;;;;6.97;1.73;;;29.50;48.70;;;;;;5032383;28;20517;-89
2022/08/19 11:41:07;;;;;;;5.22;1.45;;;29.70;48.50;;;;;;5033407;28;20029;-88
2022/08/19 11:43:34;;;;;;;5.15;2.05;;;29.80;48.30;;;;;;5033065;28;20032;-90
2022/08/19 11:46:06;;;;;;;3.50;1.70;;;29.90;48.10;;;;;;5021145;28;20108;-90
2022/08/19 11:48:32;;;;;;;3.88;1.60;;;29.90;48.00;;;;;;5024704;28;20111;-89
2022/08/19 11:50:59;;;;;;;4.50;1.60;;;29.90;48.10;;;;;;5034452;28;20548;-91
2022/08/19 11:53:26;;;;;;;6.38;2.10;;;29.90;48.00;;;;;;5031874;28;20106;-89
2022/08/19 11:55:56;;;;;;;4.00;1.70;;;29.90;47.90;;;;;;4998857;28;20041;-93
2022/08/19 11:58:22;;;;;;;4.50;1.30;;;30.00;47.90;;;;;;5029988;28;20118;-92
2022/08/19 12:00:48;;;;;;;4.82;1.90;;;30.00;47.90;;;;;;5020796;28;20029;-91
2022/08/19 12:03:15;;;;;;;5.90;2.10;;;30.00;47.80;;;;;;5012104;28;20099;-88
2022/08/19 12:05:43;;;;;;;7.60;2.13;;;30.00;47.70;;;;;;4991703;28;20341;-89
2022/08/19 12:08:09;;;;;;;5.40;1.60;;;30.10;47.50;;;;;;5021587;28;20025;-92
2022/08/19 12:10:35;;;;;;;5.53;2.08;;;30.20;47.30;;;;;;5020114;28;20056;-88
2022/08/19 12:13:01;;;;;;;5.22;1.63;;;30.40;47.30;;;;;;5011367;28;20034;-91
2022/08/19 12:15:28;;;;;;;4.47;1.48;;;30.50;47.10;;;;;;5012713;28;20037;-93
2022/08/19 12:17:56;;;;;;;5.47;1.73;;;30.70;46.90;;;;;;5012772;28;20044;-92
2022/08/19 12:20:24;;;;;;;5.15;1.65;;;30.80;46.70;;;;;;5015824;28;20029;-94
2022/08/19 12:22:50;;;;;;;6.07;1.88;;;30.80;46.50;;;;;;4999067;28;20037;-93
2022/08/19 12:25:16;;;;;;;4.70;1.65;;;30.90;46.50;;;;;;5017831;28;20557;-92
2022/08/19 12:27:43;;;;;;;5.38;2.17;;;30.90;46.30;;;;;;5003591;28;20057;-91
2022/08/19 12:30:12;;;;;;;3.65;1.15;;;30.80;46.30;;;;;;5029041;28;20014;-92
2022/08/19 12:32:39;;;;;;;4.90;1.92;;;30.80;46.20;;;;;;5033671;28;20029;-92
2022/08/19 12:35:08;;;;;;;6.43;1.88;;;30.80;46.30;;;;;;5021755;28;20056;-91
2022/08/19 12:37:35;;;;;;;4.72;1.73;;;30.70;46.10;;;;;;5037841;28;20295;-94
2022/08/19 12:40:02;;;;;;;4.82;1.40;;;30.70;46.20;;;;;;5018283;28;20275;-92
2022/08/19 12:42:30;;;;;;;6.05;2.08;;;30.60;46.10;;;;;;5028764;28;20100;-91
2022/08/19 12:44:56;;;;;;;2.63;1.30;;;30.70;45.90;;;;;;5002366;28;20070;-91
2022/08/19 12:47:22;;;;;;;6.50;1.52;;;30.70;45.90;;;;;;5019824;28;20071;-95
2022/08/19 12:49:48;;;;;;;3.60;1.50;;;30.70;45.90;;;;;;4996456;28;20094;-96
2022/08/19 12:52:15;;;;;;;4.22;1.42;;;30.70;45.90;;;;;;5005820;28;20026;-95
2022/08/19 12:54:43;;;;;;;3.70;1.33;;;30.80;46.00;;;;;;5006714;28;20044;-93
2022/08/19 12:57:10;;;;;;;3.63;1.50;;;30.90;45.90;;;;;;4973900;28;20062;-90
2022/08/19 12:59:37;;;;;;;3.13;1.58;;;31.00;45.80;;;;;;4990738;28;20053;-89
2022/08/19 13:02:05;;;;;;;5.15;1.48;;;31.10;45.60;;;;;;4988357;28;20107;-94
2022/08/19 13:04:34;;;;;;;5.05;2.40;;;31.20;45.40;;;;;;5007181;28;20072;-91
2022/08/19 13:07:00;;;;;;;5.28;1.90;;;31.30;45.20;;;;;;4990888;28;20034;-92
2022/08/19 13:09:26;;;;;;;3.90;1.60;;;31.40;45.00;;;;;;4991120;28;20462;-92
2022/08/19 13:11:52;;;;;;;4.13;1.75;;;31.40;44.80;;;;;;5006955;28;20030;-94
2022/08/19 13:14:18;;;;;;;4.18;1.80;;;31.50;44.70;;;;;;5009062;28;20091;-91
2022/08/19 13:16:44;;;;;;;4.80;1.05;;;31.60;44.60;;;;;;5009618;28;20022;-93
2022/08/19 13:19:11;;;;;;;3.63;1.45;;;31.70;44.50;;;;;;5008943;28;20095;-93